createdAt,value
2023-04-27T00:01:53.964Z,1.40
2023-04-27T00:04:24.156Z,1.60
2023-04-27T00:06:54.623Z,1.40
2023-04-27T00:09:27.322Z,1.40
2023-04-27T00:11:57.738Z,1.60
2023-04-27T00:14:29.265Z,1.38
2023-04-27T00:16:59.727Z,1.40
2023-04-27T00:19:30.940Z,1.80
2023-04-27T00:22:01.541Z,1.30
2023-04-27T00:24:33.775Z,1.55
2023-04-27T00:27:03.954Z,1.75
2023-04-27T00:29:34.168Z,1.33
2023-04-27T00:32:04.373Z,2.10
2023-04-27T00:34:34.426Z,1.60
2023-04-27T00:37:04.214Z,1.70
2023-04-27T00:39:38.092Z,2.00
2023-04-27T00:42:11.919Z,1.30
2023-04-27T00:44:42.055Z,2.08
2023-04-27T00:47:13.875Z,1.80
2023-04-27T00:49:43.639Z,1.85
2023-04-27T00:52:13.942Z,2.20
2023-04-27T00:54:45.985Z,2.17
2023-04-27T00:57:17.008Z,2.13
2023-04-27T00:59:47.139Z,2.33
2023-04-27T01:02:17.476Z,2.22
2023-04-27T01:04:47.845Z,2.47
2023-04-27T01:07:18.369Z,2.40
2023-04-27T01:09:51.005Z,2.53
2023-04-27T01:12:21.210Z,2.58
2023-04-27T01:14:51.480Z,2.90
2023-04-27T01:17:22.371Z,2.72
2023-04-27T01:19:52.050Z,2.88
2023-04-27T01:22:22.278Z,2.83
2023-04-27T01:24:54.537Z,3.22
2023-04-27T01:27:24.458Z,3.50
2023-04-27T01:29:54.532Z,3.28
2023-04-27T01:32:24.989Z,3.00
2023-04-27T01:34:55.590Z,3.40
2023-04-27T01:37:25.828Z,3.08
2023-04-27T01:39:57.483Z,3.80
2023-04-27T01:42:27.323Z,3.33
2023-04-27T01:44:57.275Z,3.70
2023-04-27T01:47:27.366Z,4.82
2023-04-27T01:49:57.618Z,4.40
2023-04-27T01:52:27.841Z,3.38
2023-04-27T01:54:59.680Z,3.53
2023-04-27T01:57:29.866Z,3.55
2023-04-27T02:00:00.148Z,3.67
2023-04-27T02:02:30.455Z,4.50
2023-04-27T02:05:00.334Z,4.15
2023-04-27T02:07:29.898Z,4.15
2023-04-27T02:10:02.079Z,4.03
2023-04-27T02:12:32.272Z,4.28
2023-04-27T02:15:01.881Z,4.30
2023-04-27T02:17:34.472Z,4.35
2023-04-27T02:20:05.849Z,4.13
2023-04-27T02:22:36.179Z,4.65
2023-04-27T02:25:09.544Z,4.10
2023-04-27T02:27:40.405Z,4.07
2023-04-27T02:30:13.780Z,4.15
2023-04-27T02:32:44.616Z,4.07
2023-04-27T02:35:15.076Z,4.15
2023-04-27T02:37:45.102Z,3.90
2023-04-27T02:40:17.304Z,4.20
2023-04-27T02:42:47.258Z,3.83
2023-04-27T02:45:24.468Z,3.95
2023-04-27T02:47:54.749Z,3.42
2023-04-27T02:50:25.066Z,3.90
2023-04-27T02:52:55.649Z,3.08
2023-04-27T02:55:28.003Z,3.63
2023-04-27T02:57:58.199Z,5.00
2023-04-27T03:00:28.918Z,4.22
2023-04-27T03:02:59.082Z,3.53
2023-04-27T03:05:32.112Z,3.58
2023-04-27T03:08:03.763Z,3.80
2023-04-27T03:10:35.902Z,3.70
2023-04-27T03:13:06.623Z,4.13
2023-04-27T03:15:38.960Z,4.15
2023-04-27T03:18:09.520Z,3.55
2023-04-27T03:20:39.987Z,4.25
2023-04-27T03:23:10.165Z,4.07
2023-04-27T03:25:42.357Z,3.63
2023-04-27T03:28:12.050Z,4.03
2023-04-27T03:30:43.156Z,4.03
2023-04-27T03:33:13.305Z,4.22
2023-04-27T03:35:43.703Z,4.40
2023-04-27T03:38:13.930Z,4.07
2023-04-27T03:40:46.015Z,4.10
2023-04-27T03:43:15.728Z,4.55
2023-04-27T03:45:46.196Z,5.18
2023-04-27T03:48:17.467Z,4.68
2023-04-27T03:50:47.860Z,4.28
2023-04-27T03:53:18.307Z,3.92
2023-04-27T03:55:50.599Z,5.25
2023-04-27T03:58:20.844Z,4.30
2023-04-27T04:00:51.120Z,4.25
2023-04-27T04:03:21.279Z,4.30
2023-04-27T04:05:51.799Z,4.78
2023-04-27T04:08:21.425Z,3.53
2023-04-27T04:10:53.532Z,5.35
2023-04-27T04:13:23.646Z,3.40
2023-04-27T04:16:03.342Z,3.75
2023-04-27T04:18:33.603Z,3.15
2023-04-27T04:21:04.112Z,3.58
2023-04-27T04:23:34.305Z,3.22
2023-04-27T04:26:06.190Z,3.75
2023-04-27T04:28:36.506Z,4.32
2023-04-27T04:31:08.846Z,3.33
2023-04-27T04:33:39.087Z,3.30
2023-04-27T04:36:09.938Z,3.15
2023-04-27T04:38:40.188Z,3.28
2023-04-27T04:41:12.691Z,3.25
2023-04-27T04:43:42.927Z,3.92
2023-04-27T04:46:13.092Z,3.58
2023-04-27T04:48:42.690Z,3.65
2023-04-27T04:51:12.255Z,2.95
2023-04-27T04:53:50.595Z,2.90
2023-04-27T04:56:22.387Z,2.78
2023-04-27T04:58:52.333Z,3.00
2023-04-27T05:01:22.679Z,3.00
2023-04-27T05:03:53.072Z,3.28
2023-04-27T05:06:23.012Z,3.00
2023-04-27T05:08:52.997Z,3.03
2023-04-27T05:11:25.393Z,3.33
2023-04-27T05:13:55.543Z,2.85
2023-04-27T05:16:26.904Z,2.97
2023-04-27T05:18:57.320Z,2.95
2023-04-27T05:21:27.044Z,3.20
2023-04-27T05:23:56.733Z,3.03
2023-04-27T05:26:28.539Z,2.92
2023-04-27T05:28:58.795Z,2.90
2023-04-27T05:31:29.266Z,2.60
2023-04-27T05:33:59.491Z,2.97
2023-04-27T05:36:30.097Z,2.78
2023-04-27T05:39:00.250Z,4.35
2023-04-27T05:41:32.734Z,2.97
2023-04-27T05:44:02.865Z,2.70
2023-04-27T05:46:32.862Z,2.47
2023-04-27T05:49:02.929Z,2.10
2023-04-27T05:51:34.137Z,2.20
2023-04-27T05:54:04.313Z,1.90
2023-04-27T05:56:38.235Z,2.30
2023-04-27T05:59:08.538Z,2.00
2023-04-27T06:01:39.368Z,2.03
2023-04-27T06:04:09.605Z,2.20
2023-04-27T06:06:39.907Z,2.60
2023-04-27T06:09:09.608Z,2.97
2023-04-27T06:11:41.292Z,2.55
2023-04-27T06:14:11.560Z,2.10
2023-04-27T06:16:42.562Z,2.47
2023-04-27T06:19:12.947Z,2.40
2023-04-27T06:21:42.827Z,1.90
2023-04-27T06:24:12.949Z,2.08
2023-04-27T06:26:44.872Z,1.90
2023-04-27T06:29:14.725Z,1.90
2023-04-27T06:31:45.438Z,2.08
2023-04-27T06:34:15.447Z,1.70
2023-04-27T06:36:45.191Z,1.70
2023-04-27T06:39:15.045Z,1.80
2023-04-27T06:41:46.838Z,1.40
2023-04-27T06:44:16.497Z,3.88
2023-04-27T06:46:46.519Z,1.35
2023-04-27T06:49:16.658Z,2.17
2023-04-27T06:51:47.069Z,1.45
2023-04-27T06:54:17.441Z,1.98
2023-04-27T06:56:49.632Z,1.75
2023-04-27T06:59:19.681Z,1.95
2023-04-27T07:01:49.528Z,1.75
2023-04-27T07:04:19.924Z,1.60
2023-04-27T07:06:50.162Z,1.73
2023-04-27T07:09:27.072Z,1.65
2023-04-27T07:12:01.636Z,1.70
2023-04-27T07:14:33.965Z,2.90
2023-04-27T07:17:04.199Z,2.65
2023-04-27T07:19:34.794Z,1.70
2023-04-27T07:22:05.129Z,1.80
2023-04-27T07:24:35.399Z,1.85
2023-04-27T07:27:07.661Z,2.30
2023-04-27T07:29:38.318Z,1.98
2023-04-27T07:32:09.280Z,1.88
2023-04-27T07:34:51.796Z,2.20
2023-04-27T07:37:22.413Z,2.55
2023-04-27T07:39:54.301Z,1.70
2023-04-27T07:42:26.454Z,2.20
2023-04-27T07:44:56.500Z,2.13
2023-04-27T07:47:26.736Z,1.98
2023-04-27T07:49:56.855Z,2.38
2023-04-27T07:52:26.981Z,2.25
2023-04-27T07:54:57.551Z,1.70
2023-04-27T07:57:29.944Z,1.60
2023-04-27T08:00:00.423Z,1.50
2023-04-27T08:02:32.162Z,1.38
2023-04-27T08:05:03.248Z,1.50
2023-04-27T08:07:36.085Z,1.27
2023-04-27T08:10:11.023Z,1.17
2023-04-27T08:12:42.992Z,1.20
2023-04-27T08:15:14.611Z,0.80
2023-04-27T08:17:45.343Z,1.20
2023-04-27T08:20:15.989Z,2.35
2023-04-27T08:22:46.445Z,1.00
2023-04-27T08:25:16.617Z,1.33
2023-04-27T08:27:48.340Z,1.05
2023-04-27T08:30:19.002Z,1.15
2023-04-27T08:32:49.075Z,1.00
2023-04-27T08:35:19.638Z,1.00
2023-04-27T08:37:50.132Z,0.90
2023-04-27T08:40:20.893Z,0.95
2023-04-27T08:43:01.609Z,1.70
2023-04-27T08:45:31.896Z,1.25
2023-04-27T08:48:01.705Z,0.95
2023-04-27T08:50:32.056Z,1.17
2023-04-27T08:53:02.370Z,1.15
2023-04-27T08:55:32.890Z,0.80
2023-04-27T08:58:04.596Z,0.90
2023-04-27T09:00:42.937Z,0.85
2023-04-27T09:03:25.722Z,0.98
2023-04-27T09:06:05.355Z,2.42
2023-04-27T09:08:47.070Z,1.02
2023-04-27T09:11:18.883Z,1.02
2023-04-27T09:13:51.080Z,0.90
2023-04-27T09:16:28.193Z,0.80
2023-04-27T09:18:59.865Z,1.15
2023-04-27T09:21:33.009Z,1.10
2023-04-27T09:24:13.188Z,1.23
2023-04-27T09:26:44.179Z,0.80
2023-04-27T09:29:16.849Z,0.77
2023-04-27T09:31:47.139Z,0.90
2023-04-27T09:34:17.407Z,1.10
2023-04-27T09:36:50.149Z,1.05
2023-04-27T09:39:20.625Z,0.90
2023-04-27T09:41:51.900Z,0.90
2023-04-27T09:44:23.884Z,0.55
2023-04-27T09:46:55.774Z,0.90
2023-04-27T09:49:28.805Z,0.90
2023-04-27T09:51:59.342Z,1.02
2023-04-27T09:54:36.329Z,0.88
2023-04-27T09:57:23.681Z,0.90
2023-04-27T10:00:33.027Z,0.63
2023-04-27T10:03:26.003Z,0.88
2023-04-27T10:06:52.524Z,0.90
2023-04-27T10:09:25.797Z,0.60
2023-04-27T10:11:57.103Z,1.35
2023-04-27T10:14:30.720Z,0.60
2023-04-27T10:17:03.760Z,0.55
2023-04-27T10:19:33.384Z,0.73
2023-04-27T10:22:05.813Z,0.98
2023-04-27T10:24:38.744Z,0.52
2023-04-27T10:27:12.499Z,0.85
2023-04-27T10:29:45.520Z,0.70
2023-04-27T10:32:24.510Z,0.80
2023-04-27T10:35:06.781Z,0.60
2023-04-27T10:37:48.072Z,0.75
2023-04-27T10:40:19.633Z,0.57
2023-04-27T10:42:51.131Z,0.52
2023-04-27T10:45:31.963Z,0.52
2023-04-27T10:48:04.983Z,0.70
2023-04-27T10:50:35.163Z,0.40
2023-04-27T10:53:08.704Z,0.63
2023-04-27T10:55:39.649Z,2.00
2023-04-27T10:58:09.512Z,0.38
2023-04-27T11:00:45.036Z,0.60
2023-04-27T11:03:20.208Z,3.90
2023-04-27T11:05:52.729Z,0.50
2023-04-27T11:08:22.747Z,0.60
2023-04-27T11:10:54.494Z,0.68
2023-04-27T11:13:29.104Z,1.10
2023-04-27T11:16:01.519Z,0.40
2023-04-27T11:18:35.377Z,0.40
2023-04-27T11:21:13.474Z,0.68
2023-04-27T11:23:44.301Z,0.30
2023-04-27T11:26:16.920Z,0.45
2023-04-27T11:28:59.285Z,0.40
2023-04-27T11:31:30.698Z,0.45
2023-04-27T11:34:04.037Z,0.40
2023-04-27T11:36:34.391Z,0.30
2023-04-27T11:39:06.724Z,0.40
2023-04-27T11:41:39.668Z,0.70
2023-04-27T11:44:12.603Z,0.43
2023-04-27T11:46:48.092Z,0.65
2023-04-27T11:49:20.391Z,0.65
2023-04-27T11:51:51.454Z,0.70
2023-04-27T11:54:22.110Z,0.52
2023-04-27T11:56:52.159Z,0.52
2023-04-27T11:59:23.984Z,0.35
2023-04-27T12:01:54.788Z,0.50
2023-04-27T12:04:26.145Z,0.82
2023-04-27T12:06:57.188Z,1.17
2023-04-27T12:09:27.303Z,0.45
2023-04-27T12:11:57.552Z,0.60
2023-04-27T12:14:27.783Z,0.70
2023-04-27T12:16:58.126Z,0.40
2023-04-27T12:19:31.409Z,0.60
2023-04-27T12:22:01.954Z,0.63
2023-04-27T12:24:32.692Z,0.65
2023-04-27T12:27:03.743Z,0.60
2023-04-27T12:29:34.361Z,0.60
2023-04-27T12:32:04.571Z,0.70
2023-04-27T12:34:37.074Z,0.50
2023-04-27T12:37:07.611Z,0.50
2023-04-27T12:39:37.294Z,0.40
2023-04-27T12:42:07.739Z,0.55
2023-04-27T12:44:38.409Z,0.80
2023-04-27T12:47:08.111Z,0.63
2023-04-27T12:49:40.963Z,0.50
2023-04-27T12:52:10.958Z,0.40
2023-04-27T12:54:41.226Z,0.70
2023-04-27T12:57:11.503Z,0.55
2023-04-27T12:59:42.257Z,0.93
2023-04-27T13:02:13.315Z,0.52
2023-04-27T13:04:45.185Z,0.55
2023-04-27T13:07:15.637Z,0.55
2023-04-27T13:09:45.931Z,0.82
2023-04-27T13:12:16.410Z,0.45
2023-04-27T13:14:47.549Z,0.43
2023-04-27T13:17:18.049Z,0.43
2023-04-27T13:19:50.293Z,0.32
2023-04-27T13:22:21.397Z,0.52
2023-04-27T13:24:51.666Z,0.40
2023-04-27T13:27:25.509Z,0.57
2023-04-27T13:29:55.521Z,0.40
2023-04-27T13:32:25.656Z,0.50
2023-04-27T13:34:57.748Z,0.93
2023-04-27T13:37:27.573Z,0.57
2023-04-27T13:39:57.845Z,0.52
2023-04-27T13:42:29.902Z,0.40
2023-04-27T13:45:00.147Z,0.38
2023-04-27T13:47:37.481Z,0.30
2023-04-27T13:50:12.468Z,0.40
2023-04-27T13:52:42.983Z,0.40
2023-04-27T13:55:14.148Z,0.68
2023-04-27T13:57:44.424Z,0.50
2023-04-27T14:00:16.928Z,0.32
2023-04-27T14:02:47.012Z,0.70
2023-04-27T14:05:19.326Z,0.80
2023-04-27T14:07:49.570Z,0.55
2023-04-27T14:10:19.326Z,0.50
2023-04-27T14:12:49.597Z,0.50
2023-04-27T14:15:21.052Z,0.50
2023-04-27T14:17:51.192Z,0.60
2023-04-27T14:20:23.069Z,0.47
2023-04-27T14:22:53.460Z,0.43
2023-04-27T14:25:24.104Z,0.57
2023-04-27T14:27:55.092Z,2.35
2023-04-27T14:30:25.262Z,0.65
2023-04-27T14:32:55.896Z,0.50
2023-04-27T14:35:28.991Z,2.40
2023-04-27T14:38:02.627Z,0.43
2023-04-27T14:40:34.477Z,1.00
2023-04-27T14:43:04.770Z,0.50
2023-04-27T14:45:47.783Z,0.52
2023-04-27T14:48:21.384Z,0.60
2023-04-27T14:50:53.162Z,0.70
2023-04-27T14:53:23.131Z,0.32
2023-04-27T14:55:53.355Z,0.70
2023-04-27T14:58:23.421Z,0.52
2023-04-27T15:00:54.368Z,0.60
2023-04-27T15:03:24.911Z,0.50
2023-04-27T15:05:56.786Z,0.80
2023-04-27T15:08:27.018Z,0.90
2023-04-27T15:11:00.202Z,0.60
2023-04-27T15:13:30.911Z,0.60
2023-04-27T15:16:05.200Z,0.60
2023-04-27T15:18:35.717Z,0.85
2023-04-27T15:21:07.747Z,0.80
2023-04-27T15:23:38.009Z,0.80
2023-04-27T15:26:08.087Z,0.77
2023-04-27T15:28:38.523Z,0.80
2023-04-27T15:31:08.753Z,1.30
2023-04-27T15:33:38.568Z,0.90
2023-04-27T15:36:11.428Z,0.88
2023-04-27T15:38:41.624Z,0.88
2023-04-27T15:41:11.492Z,0.57
2023-04-27T15:43:41.867Z,0.82
2023-04-27T15:46:11.965Z,1.95
2023-04-27T15:48:42.252Z,0.73
2023-04-27T15:51:14.397Z,0.80
2023-04-27T15:53:45.715Z,0.60
2023-04-27T15:56:16.883Z,0.75
2023-04-27T15:58:48.564Z,0.70
2023-04-27T16:01:19.900Z,0.52
2023-04-27T16:03:50.301Z,0.70
2023-04-27T16:06:22.411Z,0.70
2023-04-27T16:08:52.133Z,0.65
2023-04-27T16:11:22.355Z,1.05
2023-04-27T16:13:52.434Z,0.70
2023-04-27T16:16:23.810Z,0.73
2023-04-27T16:18:54.303Z,0.57
2023-04-27T16:21:27.289Z,0.68
2023-04-27T16:23:57.511Z,0.73
2023-04-27T16:26:28.390Z,0.82
2023-04-27T16:28:58.850Z,0.57
2023-04-27T16:31:29.585Z,0.80
2023-04-27T16:34:00.014Z,0.70
2023-04-27T16:36:34.045Z,0.73
2023-04-27T16:39:05.821Z,1.33
2023-04-27T16:41:35.946Z,0.85
2023-04-27T16:44:06.202Z,0.88
2023-04-27T16:46:37.087Z,0.80
2023-04-27T16:49:07.306Z,1.05
2023-04-27T16:51:39.328Z,0.93
2023-04-27T16:54:11.417Z,1.00
2023-04-27T16:56:41.955Z,1.02
2023-04-27T16:59:12.911Z,1.38
2023-04-27T17:01:43.900Z,1.35
2023-04-27T17:04:14.579Z,1.13
2023-04-27T17:06:48.755Z,0.88
2023-04-27T17:09:19.208Z,0.85
2023-04-27T17:11:49.407Z,1.55
2023-04-27T17:14:21.562Z,1.33
2023-04-27T17:16:52.738Z,1.40
2023-04-27T17:19:22.965Z,1.50
2023-04-27T17:21:55.033Z,1.80
2023-04-27T17:24:26.944Z,1.50
2023-04-27T17:26:57.764Z,1.70
2023-04-27T17:29:28.241Z,1.40
2023-04-27T17:31:58.567Z,1.50
2023-04-27T17:34:29.524Z,1.10
2023-04-27T17:37:01.465Z,1.10
2023-04-27T17:39:34.870Z,0.93
2023-04-27T17:42:07.250Z,1.35
2023-04-27T17:44:39.732Z,0.82
2023-04-27T17:47:12.706Z,0.80
2023-04-27T17:49:43.475Z,0.77
2023-04-27T17:52:15.827Z,0.80
2023-04-27T17:54:47.384Z,0.98
2023-04-27T17:57:18.640Z,1.20
2023-04-27T17:59:50.656Z,1.05
2023-04-27T18:02:20.585Z,0.60
2023-04-27T18:04:50.950Z,0.57
2023-04-27T18:07:23.147Z,0.68
2023-04-27T18:09:53.462Z,0.90
2023-04-27T18:12:23.995Z,1.13
2023-04-27T18:14:54.034Z,1.23
2023-04-27T18:17:24.086Z,1.20
2023-04-27T18:20:07.618Z,0.98
2023-04-27T18:22:42.146Z,0.80
2023-04-27T18:25:13.824Z,0.90
2023-04-27T18:27:45.809Z,0.90
2023-04-27T18:30:17.488Z,1.38
2023-04-27T18:32:52.163Z,0.80
2023-04-27T18:35:22.720Z,0.95
2023-04-27T18:37:55.764Z,1.23
2023-04-27T18:40:26.460Z,0.93
2023-04-27T18:42:56.822Z,0.73
2023-04-27T18:45:27.310Z,0.80
2023-04-27T18:47:57.691Z,0.80
2023-04-27T18:50:28.160Z,0.90
2023-04-27T18:53:01.949Z,2.08
2023-04-27T18:55:32.302Z,2.28
2023-04-27T18:58:06.349Z,1.13
2023-04-27T19:00:36.740Z,1.08
2023-04-27T19:03:07.489Z,0.90
2023-04-27T19:05:38.227Z,0.95
2023-04-27T19:08:10.845Z,1.05
2023-04-27T19:10:41.789Z,0.98
2023-04-27T19:13:12.747Z,1.48
2023-04-27T19:15:42.697Z,0.85
2023-04-27T19:18:13.366Z,1.52
2023-04-27T19:20:51.256Z,1.52
2023-04-27T19:23:23.587Z,1.80
2023-04-27T19:25:57.512Z,1.52
2023-04-27T19:28:30.754Z,2.50
2023-04-27T19:31:01.440Z,1.83
2023-04-27T19:33:32.184Z,1.67
2023-04-27T19:36:02.179Z,1.67
2023-04-27T19:38:35.483Z,2.90
2023-04-27T19:41:07.412Z,1.65
2023-04-27T19:43:37.798Z,1.73
2023-04-27T19:46:08.420Z,2.22
2023-04-27T19:48:38.848Z,2.00
2023-04-27T19:51:12.415Z,1.80
2023-04-27T19:53:44.894Z,1.75
2023-04-27T19:56:15.366Z,1.67
2023-04-27T19:58:45.523Z,1.80
2023-04-27T20:01:15.813Z,1.80
2023-04-27T20:03:46.421Z,1.73
2023-04-27T20:06:17.402Z,1.60
2023-04-27T20:08:49.813Z,1.55
2023-04-27T20:11:20.039Z,1.90
2023-04-27T20:13:50.854Z,1.70
2023-04-27T20:16:22.414Z,1.92
2023-04-27T20:18:52.794Z,1.80
2023-04-27T20:21:23.213Z,1.73
2023-04-27T20:23:55.603Z,1.88
2023-04-27T20:26:26.548Z,1.50
2023-04-27T20:28:57.068Z,1.60
2023-04-27T20:31:27.251Z,1.70
2023-04-27T20:33:57.976Z,1.80
2023-04-27T20:36:28.825Z,1.63
2023-04-27T20:39:02.399Z,1.83
2023-04-27T20:41:34.055Z,1.77
2023-04-27T20:44:04.456Z,1.70
2023-04-27T20:46:35.040Z,1.75
2023-04-27T20:49:05.594Z,1.50
2023-04-27T20:51:36.995Z,1.75
2023-04-27T20:54:08.847Z,1.38
2023-04-27T20:56:39.109Z,1.30
2023-04-27T20:59:09.402Z,1.15
2023-04-27T21:01:39.770Z,1.50
2023-04-27T21:04:10.435Z,1.42
2023-04-27T21:06:42.027Z,1.42
2023-04-27T21:09:14.204Z,1.27
2023-04-27T21:11:44.942Z,1.15
2023-04-27T21:14:14.863Z,1.40
2023-04-27T21:16:45.427Z,1.20
2023-04-27T21:19:17.017Z,1.17
2023-04-27T21:21:47.367Z,0.95
2023-04-27T21:24:20.145Z,1.35
2023-04-27T21:26:50.673Z,0.85
2023-04-27T21:29:20.982Z,1.27
2023-04-27T21:31:51.561Z,1.00
2023-04-27T21:34:22.027Z,1.30
2023-04-27T21:36:52.824Z,1.30
2023-04-27T21:39:25.076Z,1.00
2023-04-27T21:41:55.304Z,1.00
2023-04-27T21:44:25.281Z,0.93
2023-04-27T21:46:55.311Z,0.70
2023-04-27T21:49:26.967Z,0.95
2023-04-27T21:51:56.643Z,0.82
2023-04-27T21:54:28.557Z,1.30
2023-04-27T21:56:58.445Z,0.70
2023-04-27T21:59:28.792Z,0.80
2023-04-27T22:01:59.698Z,1.40
2023-04-27T22:04:30.431Z,1.00
2023-04-27T22:07:00.945Z,0.90
2023-04-27T22:09:32.906Z,0.70
2023-04-27T22:12:03.403Z,0.75
2023-04-27T22:14:34.013Z,0.80
2023-04-27T22:17:04.318Z,1.17
2023-04-27T22:19:34.571Z,0.77
2023-04-27T22:22:04.643Z,0.88
2023-04-27T22:24:37.005Z,0.80
2023-04-27T22:27:06.902Z,0.90
2023-04-27T22:29:37.063Z,0.77
2023-04-27T22:32:10.147Z,0.77
2023-04-27T22:34:40.090Z,0.75
2023-04-27T22:37:10.618Z,0.98
2023-04-27T22:39:42.582Z,0.90
2023-04-27T22:42:13.037Z,1.15
2023-04-27T22:44:43.428Z,1.05
2023-04-27T22:47:14.676Z,2.70
2023-04-27T22:49:45.596Z,0.70
2023-04-27T22:52:16.895Z,0.80
2023-04-27T22:54:48.988Z,0.70
2023-04-27T22:57:19.409Z,0.85
2023-04-27T22:59:51.955Z,1.13
2023-04-27T23:02:21.942Z,1.05
2023-04-27T23:04:52.264Z,1.13
2023-04-27T23:07:23.623Z,1.60
2023-04-27T23:09:55.625Z,1.60
2023-04-27T23:12:27.286Z,1.73
2023-04-27T23:14:57.006Z,1.45
2023-04-27T23:17:31.168Z,1.60
2023-04-27T23:20:02.617Z,1.70
2023-04-27T23:22:33.417Z,1.52
2023-04-27T23:25:05.182Z,1.80
2023-04-27T23:27:35.054Z,1.80
2023-04-27T23:30:05.490Z,1.90
2023-04-27T23:32:37.316Z,1.80
2023-04-27T23:35:08.650Z,1.92
2023-04-27T23:37:38.926Z,1.98
2023-04-27T23:40:14.670Z,2.33
2023-04-27T23:42:44.892Z,2.10
2023-04-27T23:45:15.577Z,2.13
2023-04-27T23:47:46.396Z,2.17
2023-04-27T23:50:16.964Z,2.28
2023-04-27T23:52:47.462Z,2.28
2023-04-27T23:55:19.977Z,2.25
2023-04-27T23:57:54.904Z,2.65
